Time;durP1;ratioP1;P1;durP2;ratioP2;P2;SDS_P1;SDS_P2;PMS_P1;PMS_P2;Temp;Humidity;BMP_temperature;BMP_pressure;BME280_temperature;BME280_humidity;BME280_pressure;Samples;Min_cycle;Max_cycle;Signal;HPM_P1;HPM_P2
2021/07/11 00:00:50;;;;;;;;;;;;;;;20.45;62.01;97119.92;1822728;77;20096;-71
2021/07/11 00:03:20;;;;;;;;;;;;;;;20.47;62.48;97117.88;1830995;77;20127;-73
2021/07/11 00:05:46;;;;;;;;;;;;;;;20.49;62.45;97113.17;1823022;77;20095;-71
2021/07/11 00:08:12;;;;;;;;;;;;;;;20.51;61.64;97111.14;1844512;77;20092;-71
2021/07/11 00:10:38;;;;;;;;;;;;;;;20.53;62.23;97110.45;1846605;77;20100;-72
2021/07/11 00:13:05;;;;;;;;;;;;;;;20.54;61.29;97109.44;1825357;77;20103;-72
2021/07/11 00:15:31;;;;;;;;;;;;;;;20.53;62.58;97109.12;1836897;77;20096;-72
2021/07/11 00:17:57;;;;;;;;;;;;;;;20.54;62.42;97106.77;1849238;77;20100;-71
2021/07/11 00:20:25;;;;;;;;;;;;;;;20.54;62.63;97105.42;1849072;77;20115;-71
2021/07/11 00:22:51;;;;;;;;;;;;;;;20.55;62.23;97099.06;1829212;77;20118;-70
2021/07/11 00:25:17;;;;;;;;;;;;;;;20.60;62.03;97105.19;1846226;77;20416;-72
2021/07/11 00:27:45;;;;;;;;;;;;;;;20.61;61.36;97093.44;1844855;77;20111;-71
2021/07/11 00:30:15;;;;;;;;;;;;;;;20.63;61.46;97096.77;1846713;77;20507;-73
2021/07/11 00:32:41;;;;;;;;;;;;;;;20.62;61.57;97094.28;1838442;77;20076;-73
2021/07/11 00:35:08;;;;;;;;;;;;;;;20.62;62.64;97091.08;1830249;77;20101;-71
2021/07/11 00:37:34;;;;;;;;;;;;;;;20.60;61.97;97091.28;1829683;77;20119;-72
2021/07/11 00:40:02;;;;;;;;;;;;;;;20.60;61.77;97089.94;1843682;77;20174;-71
2021/07/11 00:42:29;;;;;;;;;;;;;;;20.59;61.72;97091.48;1846967;77;20430;-71
2021/07/11 00:44:55;;;;;;;;;;;;;;;20.59;61.82;97084.27;1849506;77;20114;-71
2021/07/11 00:47:21;;;;;;;;;;;;;;;20.57;61.86;97082.27;1850159;77;20186;-71
2021/07/11 00:49:50;;;;;;;;;;;;;;;20.55;62.55;97084.82;1852152;77;20137;-71
2021/07/11 00:52:17;;;;;;;;;;;;;;;20.53;62.70;97080.16;1845306;77;20088;-72
2021/07/11 00:54:44;;;;;;;;;;;;;;;20.51;61.23;97082.22;1848651;77;20123;-71
2021/07/11 00:57:12;;;;;;;;;;;;;;;20.46;61.62;97079.25;1835768;77;20116;-72
2021/07/11 00:59:40;;;;;;;;;;;;;;;20.39;61.17;97079.16;1836245;77;20104;-72
2021/07/11 01:02:10;;;;;;;;;;;;;;;20.34;61.80;97082.39;1827882;77;20100;-71
2021/07/11 01:04:47;;;;;;;;;;;;;;;20.28;61.55;97075.12;1829197;77;20140;-72
2021/07/11 01:07:14;;;;;;;;;;;;;;;20.21;61.25;97075.02;1833327;77;20198;-70
2021/07/11 01:09:46;;;;;;;;;;;;;;;20.15;61.95;97068.23;1824599;77;20099;-70
2021/07/11 01:12:19;;;;;;;;;;;;;;;20.08;61.86;97072.99;1830710;77;20091;-70
2021/07/11 01:14:47;;;;;;;;;;;;;;;20.01;62.73;97065.39;1836404;77;20128;-71
2021/07/11 01:17:15;;;;;;;;;;;;;;;19.96;64.17;97069.95;1845762;77;20186;-71
2021/07/11 01:20:08;;;;;;;;;;;;;;;19.90;62.95;97061.33;1845810;77;20390;-71
2021/07/11 01:22:39;;;;;;;;;;;;;;;19.85;63.02;97062.38;1849093;77;20528;-73
2021/07/11 01:25:12;;;;;;;;;;;;;;;19.81;63.56;97065.89;1848057;77;20450;-71
2021/07/11 01:27:40;;;;;;;;;;;;;;;19.78;62.94;97068.11;1848906;77;20454;-71
2021/07/11 01:30:08;;;;;;;;;;;;;;;19.75;61.88;97065.78;1848563;77;20455;-71
2021/07/11 01:32:37;;;;;;;;;;;;;;;19.71;63.48;97065.84;1849784;77;20193;-71
2021/07/11 01:35:05;;;;;;;;;;;;;;;19.68;63.56;97063.00;1849255;77;20155;-71
2021/07/11 01:37:33;;;;;;;;;;;;;;;19.67;63.40;97057.36;1848543;77;20118;-73
2021/07/11 01:40:00;;;;;;;;;;;;;;;19.68;63.12;97061.66;1818156;77;20111;-72
2021/07/11 01:42:28;;;;;;;;;;;;;;;19.69;62.36;97060.66;1848464;77;20189;-72
2021/07/11 01:44:56;;;;;;;;;;;;;;;19.70;63.25;97066.33;1848771;77;20125;-72
2021/07/11 01:47:24;;;;;;;;;;;;;;;19.71;63.38;97064.51;1849350;77;20106;-72
2021/07/11 01:49:52;;;;;;;;;;;;;;;19.73;63.79;97062.45;1848819;77;20264;-72
2021/07/11 01:52:18;;;;;;;;;;;;;;;19.72;64.08;97065.66;1850385;77;20106;-72
2021/07/11 01:54:46;;;;;;;;;;;;;;;19.73;63.55;97058.45;1849370;77;20110;-71
2021/07/11 01:57:14;;;;;;;;;;;;;;;19.75;63.55;97059.10;1844216;77;20212;-71
2021/07/11 01:59:47;;;;;;;;;;;;;;;19.78;63.59;97069.44;1846441;77;20119;-71
2021/07/11 02:02:15;;;;;;;;;;;;;;;19.79;63.53;97067.09;1848427;77;20434;-71
2021/07/11 02:04:43;;;;;;;;;;;;;;;19.80;63.25;97071.44;1845279;77;20142;-72
2021/07/11 02:07:11;;;;;;;;;;;;;;;19.80;63.79;97078.94;1848108;77;20228;-71
2021/07/11 02:09:37;;;;;;;;;;;;;;;19.82;63.46;97085.43;1838760;77;20128;-70
2021/07/11 02:12:06;;;;;;;;;;;;;;;19.84;63.52;97081.26;1825670;77;20108;-72
2021/07/11 02:14:39;;;;;;;;;;;;;;;19.86;63.44;97083.28;1838128;77;20148;-70
2021/07/11 02:17:12;;;;;;;;;;;;;;;19.88;63.60;97085.24;1844702;77;20118;-70
2021/07/11 02:19:40;;;;;;;;;;;;;;;19.86;63.14;97078.75;1847185;77;20145;-71
2021/07/11 02:22:09;;;;;;;;;;;;;;;19.86;62.59;97079.27;1850617;77;20118;-73
2021/07/11 02:24:39;;;;;;;;;;;;;;;19.85;62.89;97085.11;1850025;77;20118;-71
2021/07/11 02:27:09;;;;;;;;;;;;;;;19.79;63.61;97081.80;1848389;77;20126;-72
2021/07/11 02:29:39;;;;;;;;;;;;;;;19.71;62.64;97087.23;1825139;77;20117;-71
2021/07/11 02:32:07;;;;;;;;;;;;;;;19.64;62.84;97090.61;1850498;77;20126;-70
2021/07/11 02:34:38;;;;;;;;;;;;;;;19.58;63.27;97095.35;1848008;77;20462;-74
2021/07/11 02:37:10;;;;;;;;;;;;;;;19.54;62.72;97092.70;1849504;77;20170;-73
2021/07/11 02:39:39;;;;;;;;;;;;;;;19.47;62.65;97083.75;1851004;77;20213;-70
2021/07/11 02:42:07;;;;;;;;;;;;;;;19.43;63.33;97090.48;1834727;77;20080;-72
2021/07/11 02:44:36;;;;;;;;;;;;;;;19.38;63.65;97087.50;1831074;77;20119;-71
2021/07/11 02:47:09;;;;;;;;;;;;;;;19.31;64.01;97090.05;1828340;77;20123;-70
2021/07/11 02:49:37;;;;;;;;;;;;;;;19.27;61.82;97086.91;1830164;77;20103;-71
2021/07/11 02:52:07;;;;;;;;;;;;;;;19.21;63.35;97088.16;1843498;77;20104;-72
2021/07/11 02:55:01;;;;;;;;;;;;;;;19.18;63.23;97091.50;1806845;77;20127;-72
2021/07/11 02:57:29;;;;;;;;;;;;;;;19.16;63.72;97094.03;1827384;77;20444;-72
2021/07/11 02:59:57;;;;;;;;;;;;;;;19.11;64.22;97093.22;1830251;77;20417;-71
2021/07/11 03:02:27;;;;;;;;;;;;;;;19.09;65.17;97098.39;1825679;77;20165;-71
2021/07/11 03:04:54;;;;;;;;;;;;;;;19.06;64.59;97092.09;1831900;77;20171;-72
2021/07/11 03:07:22;;;;;;;;;;;;;;;19.04;65.10;97095.77;1834994;77;20095;-71
2021/07/11 03:09:48;;;;;;;;;;;;;;;19.03;65.07;97093.25;1849002;77;20166;-73
2021/07/11 03:12:16;;;;;;;;;;;;;;;19.02;64.94;97095.11;1832774;77;20432;-72
2021/07/11 03:14:47;;;;;;;;;;;;;;;19.03;66.83;97096.77;1836922;77;20222;-72
2021/07/11 03:17:18;;;;;;;;;;;;;;;19.04;65.26;97090.91;1846453;77;20143;-73
2021/07/11 03:19:44;;;;;;;;;;;;;;;19.06;64.59;97094.24;1829374;77;20120;-72
2021/07/11 03:22:13;;;;;;;;;;;;;;;19.07;65.27;97094.58;1842140;77;20115;-72
2021/07/11 03:24:40;;;;;;;;;;;;;;;19.12;64.27;97094.86;1808425;77;20453;-70
2021/07/11 03:27:10;;;;;;;;;;;;;;;19.18;63.16;97091.50;1825544;77;20115;-70
2021/07/11 03:29:52;;;;;;;;;;;;;;;19.24;63.36;97097.97;1833120;77;20208;-71
2021/07/11 03:32:11;;;;;;;;;;;;;;;19.29;63.74;97100.93;1833776;77;20123;-72
2021/07/11 03:34:38;;;;;;;;;;;;;;;19.36;63.48;97093.03;1838816;77;20120;-72
2021/07/11 03:37:08;;;;;;;;;;;;;;;19.43;63.57;97093.16;1833278;77;20096;-72
2021/07/11 03:39:38;;;;;;;;;;;;;;;19.50;62.38;97104.78;1844999;77;20174;-72
2021/07/11 03:42:07;;;;;;;;;;;;;;;19.56;62.45;97102.72;1796669;77;20149;-72
2021/07/11 03:44:36;;;;;;;;;;;;;;;19.63;63.48;97101.50;1849600;77;20137;-72
2021/07/11 03:47:09;;;;;;;;;;;;;;;19.70;63.14;97106.95;1850897;77;20115;-72
2021/07/11 03:49:39;;;;;;;;;;;;;;;19.75;62.86;97103.22;1797183;77;20115;-71
2021/07/11 03:52:06;;;;;;;;;;;;;;;19.82;62.82;97106.34;1852475;77;20133;-70
2021/07/11 03:54:35;;;;;;;;;;;;;;;19.87;62.51;97099.13;1853828;77;20240;-70
2021/07/11 03:57:02;;;;;;;;;;;;;;;19.96;63.08;97099.86;1852368;77;20125;-72
2021/07/11 03:59:30;;;;;;;;;;;;;;;20.05;63.30;97097.95;1851294;77;20165;-72
2021/07/11 04:01:57;;;;;;;;;;;;;;;20.17;61.42;97099.66;1851035;77;20213;-72
2021/07/11 04:04:25;;;;;;;;;;;;;;;20.43;61.99;97097.34;1852428;77;20435;-72
2021/07/11 04:06:52;;;;;;;;;;;;;;;20.75;61.16;97103.83;1852332;77;20462;-72
2021/07/11 04:09:21;;;;;;;;;;;;;;;21.08;61.05;97107.41;1847993;77;20876;-72
2021/07/11 04:11:47;;;;;;;;;;;;;;;21.46;60.68;97109.84;1828703;77;20088;-72
2021/07/11 04:14:17;;;;;;;;;;;;;;;21.86;59.55;97105.84;1822463;77;20134;-71
2021/07/11 04:16:45;;;;;;;;;;;;;;;22.26;59.66;97106.13;1837421;77;20597;-73
2021/07/11 04:19:12;;;;;;;;;;;;;;;22.65;59.18;97113.26;1843768;77;20399;-72
2021/07/11 04:21:39;;;;;;;;;;;;;;;23.04;58.63;97105.88;1842868;77;20377;-72
2021/07/11 04:24:07;;;;;;;;;;;;;;;23.42;55.75;97105.86;1829313;77;20416;-72
2021/07/11 04:26:35;;;;;;;;;;;;;;;23.77;56.48;97108.89;1834847;77;20139;-73
2021/07/11 04:29:02;;;;;;;;;;;;;;;24.07;54.87;97103.11;1824382;77;20084;-72
2021/07/11 04:31:29;;;;;;;;;;;;;;;24.42;55.14;97104.98;1835705;77;20095;-72
2021/07/11 04:33:57;;;;;;;;;;;;;;;24.74;55.04;97109.16;1830729;77;20088;-73
2021/07/11 04:36:23;;;;;;;;;;;;;;;25.15;51.98;97107.09;1834702;77;20140;-71
2021/07/11 04:38:49;;;;;;;;;;;;;;;25.50;50.75;97113.95;1828172;77;20124;-72
2021/07/11 04:41:15;;;;;;;;;;;;;;;25.87;51.72;97111.38;1830493;77;20092;-73
2021/07/11 04:43:44;;;;;;;;;;;;;;;26.23;50.81;97111.69;1825738;77;20112;-72
2021/07/11 04:46:09;;;;;;;;;;;;;;;26.51;50.93;97113.89;1842067;77;20134;-73
2021/07/11 04:48:35;;;;;;;;;;;;;;;26.81;48.50;97115.33;1836729;77;20143;-71
2021/07/11 04:51:01;;;;;;;;;;;;;;;27.17;52.60;97117.36;1837179;77;20108;-72
2021/07/11 04:53:29;;;;;;;;;;;;;;;27.45;46.31;97114.60;1840254;77;20108;-73
2021/07/11 04:55:55;;;;;;;;;;;;;;;27.75;48.53;97117.25;1827094;77;20115;-72
2021/07/11 04:58:21;;;;;;;;;;;;;;;28.03;46.72;97119.29;1844146;77;20379;-72
2021/07/11 05:00:47;;;;;;;;;;;;;;;28.29;48.44;97118.55;1839466;77;20374;-73
2021/07/11 05:03:13;;;;;;;;;;;;;;;28.52;47.59;97118.23;1841462;77;20127;-73
2021/07/11 05:05:39;;;;;;;;;;;;;;;28.68;46.10;97117.48;1838716;77;20117;-74
2021/07/11 05:08:06;;;;;;;;;;;;;;;28.90;45.38;97120.11;1853813;77;20110;-73
2021/07/11 05:10:32;;;;;;;;;;;;;;;29.21;42.09;97131.02;1849908;77;20146;-72
2021/07/11 05:12:58;;;;;;;;;;;;;;;29.47;42.27;97134.22;1850625;77;20216;-74
2021/07/11 05:15:25;;;;;;;;;;;;;;;29.79;40.32;97127.45;1849969;77;20118;-72
2021/07/11 05:17:51;;;;;;;;;;;;;;;30.21;39.39;97127.84;1849957;77;20098;-73
2021/07/11 05:20:17;;;;;;;;;;;;;;;30.58;38.40;97127.04;1845775;77;20167;-74
2021/07/11 05:22:43;;;;;;;;;;;;;;;30.87;36.80;97120.86;1831028;77;20101;-73
2021/07/11 05:25:09;;;;;;;;;;;;;;;31.03;38.69;97117.80;1840512;77;20522;-73
2021/07/11 05:27:36;;;;;;;;;;;;;;;31.26;37.14;97118.06;1846913;77;20162;-73
2021/07/11 05:30:03;;;;;;;;;;;;;;;31.46;37.23;97111.19;1847188;77;20122;-72
2021/07/11 05:32:31;;;;;;;;;;;;;;;31.72;37.43;97104.63;1851282;77;20644;-73
2021/07/11 05:34:57;;;;;;;;;;;;;;;31.92;35.25;97112.13;1833933;77;20096;-73
2021/07/11 05:37:23;;;;;;;;;;;;;;;32.17;35.90;97106.03;1845274;77;20433;-72
2021/07/11 05:39:50;;;;;;;;;;;;;;;32.44;34.29;97108.38;1844862;77;20131;-73
2021/07/11 05:42:16;;;;;;;;;;;;;;;32.68;33.49;97106.05;1841123;77;20079;-72
2021/07/11 05:44:42;;;;;;;;;;;;;;;32.87;32.80;97103.71;1846404;77;20118;-73
2021/07/11 05:47:09;;;;;;;;;;;;;;;33.19;33.76;97105.42;1850318;77;20395;-74
2021/07/11 05:49:35;;;;;;;;;;;;;;;33.48;33.39;97102.22;1851844;77;20153;-75
2021/07/11 05:52:02;;;;;;;;;;;;;;;33.73;32.66;97105.52;1851702;77;20138;-75
2021/07/11 05:54:28;;;;;;;;;;;;;;;33.94;31.77;97103.62;1849971;77;20102;-73
2021/07/11 05:56:54;;;;;;;;;;;;;;;34.05;30.73;97105.81;1852125;77;20141;-73
2021/07/11 05:59:20;;;;;;;;;;;;;;;34.10;31.81;97104.42;1850854;77;20540;-72
2021/07/11 06:01:47;;;;;;;;;;;;;;;33.86;31.64;97104.73;1849595;77;20126;-72
2021/07/11 06:04:14;;;;;;;;;;;;;;;33.69;33.75;97100.88;1846828;77;20170;-72
2021/07/11 06:06:40;;;;;;;;;;;;;;;33.17;32.50;97100.23;1847330;77;20202;-72
2021/07/11 06:09:06;;;;;;;;;;;;;;;33.13;32.53;97101.86;1842039;77;20108;-72
2021/07/11 06:11:32;;;;;;;;;;;;;;;33.19;33.25;97108.15;1830628;77;20123;-72
2021/07/11 06:13:58;;;;;;;;;;;;;;;33.03;33.41;97106.48;1828505;77;20100;-70
2021/07/11 06:16:24;;;;;;;;;;;;;;;32.35;33.74;97101.26;1840440;77;20420;-74
2021/07/11 06:18:52;;;;;;;;;;;;;;;32.17;34.46;97099.22;1844225;77;20116;-73
2021/07/11 06:21:18;;;;;;;;;;;;;;;31.95;35.69;97097.15;1822987;77;20152;-71
2021/07/11 06:23:45;;;;;;;;;;;;;;;31.88;34.96;97100.93;1835115;77;20096;-71
2021/07/11 06:26:11;;;;;;;;;;;;;;;31.98;35.28;97094.72;1840279;77;20132;-73
2021/07/11 06:28:38;;;;;;;;;;;;;;;32.38;36.35;97096.09;1840307;77;20116;-73
2021/07/11 06:31:04;;;;;;;;;;;;;;;32.32;34.77;97094.44;1838961;77;20116;-73
2021/07/11 06:33:31;;;;;;;;;;;;;;;32.12;35.48;97084.73;1847671;77;20147;-74
2021/07/11 06:35:57;;;;;;;;;;;;;;;32.29;36.04;97085.41;1844126;77;20385;-72
2021/07/11 06:38:23;;;;;;;;;;;;;;;32.20;36.54;97082.32;1830881;77;20108;-75
2021/07/11 06:40:50;;;;;;;;;;;;;;;32.30;35.53;97084.33;1846055;77;20103;-72
2021/07/11 06:43:16;;;;;;;;;;;;;;;32.45;35.59;97082.23;1840432;77;20135;-73
2021/07/11 06:45:42;;;;;;;;;;;;;;;32.53;36.09;97083.61;1846842;77;20475;-73
2021/07/11 06:48:08;;;;;;;;;;;;;;;32.19;36.20;97080.70;1846754;77;20144;-72
2021/07/11 06:50:36;;;;;;;;;;;;;;;31.58;36.11;97081.05;1844054;78;20100;-74
2021/07/11 06:53:03;;;;;;;;;;;;;;;31.11;36.92;97078.42;1840026;77;20096;-74
2021/07/11 06:55:29;;;;;;;;;;;;;;;31.43;36.75;97083.91;1831789;77;20108;-77
2021/07/11 06:57:55;;;;;;;;;;;;;;;31.71;36.52;97083.36;1835439;77;20417;-73
2021/07/11 07:00:21;;;;;;;;;;;;;;;31.74;36.19;97082.84;1830644;77;20115;-72
2021/07/11 07:02:47;;;;;;;;;;;;;;;31.61;37.00;97092.77;1834564;77;20142;-74
2021/07/11 07:05:15;;;;;;;;;;;;;;;31.05;36.61;97087.04;1850037;77;20100;-73
2021/07/11 07:07:41;;;;;;;;;;;;;;;30.76;37.65;97092.73;1850780;77;20126;-73
2021/07/11 07:10:09;;;;;;;;;;;;;;;30.97;38.18;97086.14;1838122;77;20084;-73
2021/07/11 07:12:37;;;;;;;;;;;;;;;30.99;37.47;97084.83;1832249;77;20091;-72
2021/07/11 07:15:05;;;;;;;;;;;;;;;30.38;38.51;97090.31;1829184;77;20380;-74
2021/07/11 07:17:31;;;;;;;;;;;;;;;29.93;39.62;97089.39;1831500;77;20412;-71
2021/07/11 07:19:57;;;;;;;;;;;;;;;29.53;40.46;97091.18;1825554;77;20460;-71
2021/07/11 07:22:23;;;;;;;;;;;;;;;29.08;42.04;97091.98;1843718;77;20123;-73
2021/07/11 07:24:49;;;;;;;;;;;;;;;29.45;41.25;97089.69;1825460;77;20091;-73
2021/07/11 07:27:15;;;;;;;;;;;;;;;29.49;41.27;97093.28;1848145;77;20108;-74
2021/07/11 07:29:41;;;;;;;;;;;;;;;29.22;42.25;97097.39;1848781;77;20132;-75
2021/07/11 07:32:09;;;;;;;;;;;;;;;29.10;42.73;97088.47;1843029;77;20123;-73
2021/07/11 07:34:35;;;;;;;;;;;;;;;29.27;42.86;97092.59;1837595;77;20413;-71
2021/07/11 07:37:02;;;;;;;;;;;;;;;29.38;42.61;97084.11;1844219;77;20385;-73
2021/07/11 07:39:29;;;;;;;;;;;;;;;29.00;43.73;97093.73;1834108;77;20178;-73
2021/07/11 07:41:55;;;;;;;;;;;;;;;29.20;43.40;97090.02;1849247;77;20180;-72
2021/07/11 07:44:21;;;;;;;;;;;;;;;29.37;43.53;97083.85;1851163;77;20113;-72
2021/07/11 07:46:49;;;;;;;;;;;;;;;29.62;42.88;97088.87;1851011;77;20114;-76
2021/07/11 07:49:16;;;;;;;;;;;;;;;29.47;43.30;97090.78;1849756;77;20177;-72
2021/07/11 07:51:42;;;;;;;;;;;;;;;29.71;43.42;97090.66;1849320;77;20100;-71
2021/07/11 07:54:08;;;;;;;;;;;;;;;29.95;42.98;97083.70;1829045;77;20100;-72
2021/07/11 07:56:35;;;;;;;;;;;;;;;30.35;42.54;97086.73;1835144;77;20404;-74
2021/07/11 07:59:02;;;;;;;;;;;;;;;30.75;41.97;97081.56;1845012;77;20100;-71
2021/07/11 08:01:28;;;;;;;;;;;;;;;31.00;41.54;97080.20;1834030;77;20092;-72
2021/07/11 08:03:54;;;;;;;;;;;;;;;31.31;41.03;97073.19;1843036;77;20123;-71
2021/07/11 08:06:20;;;;;;;;;;;;;;;31.25;40.74;97074.23;1845118;77;20084;-71
2021/07/11 08:08:46;;;;;;;;;;;;;;;31.32;40.91;97068.58;1833276;77;20092;-71
2021/07/11 08:11:12;;;;;;;;;;;;;;;31.51;40.37;97069.56;1834772;77;20194;-69
2021/07/11 08:13:38;;;;;;;;;;;;;;;31.71;40.78;97071.66;1835592;77;20089;-73
2021/07/11 08:16:05;;;;;;;;;;;;;;;31.33;41.13;97057.94;1833321;77;20550;-71
2021/07/11 08:18:32;;;;;;;;;;;;;;;30.72;42.21;97061.66;1837254;77;20095;-72
2021/07/11 08:20:58;;;;;;;;;;;;;;;30.46;42.61;97061.33;1844814;77;20144;-70
2021/07/11 08:23:24;;;;;;;;;;;;;;;30.50;42.65;97068.44;1846517;77;20092;-70
2021/07/11 08:25:51;;;;;;;;;;;;;;;30.47;43.05;97064.85;1835713;77;20381;-71
2021/07/11 08:28:18;;;;;;;;;;;;;;;30.74;42.91;97066.83;1815043;78;20385;-71
2021/07/11 08:30:44;;;;;;;;;;;;;;;30.92;42.40;97068.41;1818309;78;20424;-72
2021/07/11 08:33:10;;;;;;;;;;;;;;;30.48;43.30;97067.34;1823807;77;20424;-71
2021/07/11 08:35:36;;;;;;;;;;;;;;;30.61;43.10;97068.05;1827870;77;20135;-71
2021/07/11 08:38:04;;;;;;;;;;;;;;;30.71;42.96;97062.73;1827222;77;20413;-73
2021/07/11 08:40:33;;;;;;;;;;;;;;;30.68;43.29;97068.67;1834110;77;20413;-70
2021/07/11 08:43:00;;;;;;;;;;;;;;;30.42;43.89;97061.53;1840759;77;20156;-75
2021/07/11 08:45:27;;;;;;;;;;;;;;;30.37;43.71;97059.57;1844240;77;20221;-71
2021/07/11 08:47:53;;;;;;;;;;;;;;;30.36;44.12;97064.72;1826463;77;20084;-70
2021/07/11 08:50:19;;;;;;;;;;;;;;;30.22;44.61;97056.66;1842064;77;20170;-70
2021/07/11 08:52:46;;;;;;;;;;;;;;;30.25;44.37;97055.33;1848859;77;20119;-70
2021/07/11 08:55:21;;;;;;;;;;;;;;;30.33;44.18;97056.25;1841503;77;20122;-70
2021/07/11 08:57:51;;;;;;;;;;;;;;;30.44;44.10;97056.67;1834672;77;20095;-71
2021/07/11 09:00:18;;;;;;;;;;;;;;;30.49;43.75;97051.28;1839473;77;20077;-74
2021/07/11 09:02:45;;;;;;;;;;;;;;;30.40;44.29;97051.44;1840357;78;20234;-72
2021/07/11 09:05:29;;;;;;;;;;;;;;;30.25;44.31;97049.38;1830443;77;20120;-76
2021/07/11 09:08:04;;;;;;;;;;;;;;;30.03;44.66;97054.23;1839969;77;20100;-70
2021/07/11 09:10:33;;;;;;;;;;;;;;;30.11;44.45;97051.63;1840104;77;20099;-69
2021/07/11 09:13:00;;;;;;;;;;;;;;;29.90;44.74;97052.66;1833349;77;20424;-71
2021/07/11 09:15:32;;;;;;;;;;;;;;;29.79;45.09;97045.42;1844670;77;20388;-71
2021/07/11 09:17:58;;;;;;;;;;;;;;;29.71;45.19;97039.05;1837440;77;20135;-72
2021/07/11 09:20:24;;;;;;;;;;;;;;;29.52;45.43;97039.30;1835494;78;20448;-71
2021/07/11 09:22:59;;;;;;;;;;;;;;;29.52;45.80;97046.09;1837121;78;20120;-71
2021/07/11 09:25:25;;;;;;;;;;;;;;;29.58;46.12;97031.52;1834494;78;20104;-71
2021/07/11 09:27:51;;;;;;;;;;;;;;;29.70;45.65;97036.86;1834935;77;20104;-72
2021/07/11 09:30:18;;;;;;;;;;;;;;;29.80;45.21;97036.72;1838282;77;20262;-71
2021/07/11 09:32:44;;;;;;;;;;;;;;;29.66;45.49;97036.24;1821408;78;20143;-70
2021/07/11 09:35:15;;;;;;;;;;;;;;;29.67;45.55;97040.61;1841679;77;20118;-71
2021/07/11 09:37:52;;;;;;;;;;;;;;;29.37;46.52;97026.30;1804923;79;20118;-71
2021/07/11 09:40:20;;;;;;;;;;;;;;;29.24;46.25;97030.65;1818732;77;20102;-74
2021/07/11 09:42:49;;;;;;;;;;;;;;;29.16;46.99;97022.91;1848436;77;20122;-73
2021/07/11 09:45:18;;;;;;;;;;;;;;;29.27;46.59;97022.03;1849954;77;20118;-71
2021/07/11 09:47:46;;;;;;;;;;;;;;;29.21;46.72;97018.95;1793824;79;20126;-72
2021/07/11 09:50:18;;;;;;;;;;;;;;;29.17;46.41;97024.05;1834974;77;20122;-72
2021/07/11 09:52:45;;;;;;;;;;;;;;;28.82;47.86;97025.86;1850052;77;20125;-72
2021/07/11 09:55:20;;;;;;;;;;;;;;;28.74;47.78;97022.19;1853897;77;20178;-72
2021/07/11 09:57:50;;;;;;;;;;;;;;;28.77;47.85;97027.66;1845564;77;20217;-72
2021/07/11 10:00:25;;;;;;;;;;;;;;;28.83;47.30;97021.25;1842879;77;20105;-72
2021/07/11 10:02:54;;;;;;;;;;;;;;;28.91;47.14;97026.28;1826826;77;20119;-73
2021/07/11 10:05:21;;;;;;;;;;;;;;;28.88;47.25;97020.00;1833983;77;20118;-72
2021/07/11 10:07:48;;;;;;;;;;;;;;;28.89;47.39;97018.94;1837378;77;20169;-72
2021/07/11 10:10:16;;;;;;;;;;;;;;;28.97;47.35;97014.99;1832832;77;20100;-73
2021/07/11 10:12:44;;;;;;;;;;;;;;;29.05;46.88;97012.42;1828376;77;20116;-72
2021/07/11 10:15:19;;;;;;;;;;;;;;;29.03;46.65;97006.41;1822789;77;20107;-72
2021/07/11 10:17:52;;;;;;;;;;;;;;;29.00;46.60;97004.22;1837160;77;20404;-72
2021/07/11 10:20:20;;;;;;;;;;;;;;;29.07;46.34;97007.04;1833728;77;20140;-73
2021/07/11 10:22:49;;;;;;;;;;;;;;;29.18;45.03;97008.58;1841959;77;20100;-73
2021/07/11 10:25:19;;;;;;;;;;;;;;;29.36;45.35;97008.92;1832950;77;20132;-72
2021/07/11 10:27:47;;;;;;;;;;;;;;;29.26;43.67;97001.38;1829959;76;20149;-73
2021/07/11 10:30:13;;;;;;;;;;;;;;;29.32;44.23;97005.87;1848723;77;20165;-76
2021/07/11 10:32:39;;;;;;;;;;;;;;;29.36;44.20;97002.94;1838493;77;20144;-72
2021/07/11 10:35:12;;;;;;;;;;;;;;;29.52;44.47;97006.73;1834751;77;20144;-71
2021/07/11 10:37:52;;;;;;;;;;;;;;;29.35;44.51;97003.20;1821917;77;20143;-73
2021/07/11 10:40:21;;;;;;;;;;;;;;;29.23;44.71;97016.27;1831959;77;20176;-70
2021/07/11 10:42:49;;;;;;;;;;;;;;;28.97;45.41;97006.34;1844660;77;20128;-72
2021/07/11 10:45:17;;;;;;;;;;;;;;;28.92;45.37;97013.02;1843337;77;20108;-72
2021/07/11 10:47:44;;;;;;;;;;;;;;;29.08;45.49;97019.54;1844698;77;20115;-72
2021/07/11 10:50:28;;;;;;;;;;;;;;;29.25;45.00;97023.64;1846698;77;20123;-76
2021/07/11 10:52:56;;;;;;;;;;;;;;;29.26;44.35;97030.72;1844537;77;20179;-74
2021/07/11 10:55:22;;;;;;;;;;;;;;;29.29;44.37;97030.20;1842886;77;20224;-72
2021/07/11 10:57:49;;;;;;;;;;;;;;;29.38;44.61;97027.11;1846292;77;20565;-74
2021/07/11 11:00:19;;;;;;;;;;;;;;;29.45;44.65;97017.75;1846736;77;20130;-72
2021/07/11 11:02:48;;;;;;;;;;;;;;;29.51;44.60;97014.58;1844365;77;20149;-72
2021/07/11 11:05:25;;;;;;;;;;;;;;;29.52;44.51;97017.59;1820791;77;20103;-72
2021/07/11 11:08:12;;;;;;;;;;;;;;;29.46;44.59;96998.23;1829871;77;20107;-72
2021/07/11 11:10:40;;;;;;;;;;;;;;;29.55;44.66;97004.89;1830215;77;20119;-72
2021/07/11 11:13:20;;;;;;;;;;;;;;;29.57;44.41;97017.66;1846829;77;20136;-73
2021/07/11 11:15:55;;;;;;;;;;;;;;;29.55;44.43;97011.67;1848832;77;20159;-72
2021/07/11 11:18:27;;;;;;;;;;;;;;;29.58;44.38;97013.87;1843727;77;20416;-72
2021/07/11 11:21:00;;;;;;;;;;;;;;;29.68;44.16;97018.66;1846188;77;20581;-76
2021/07/11 11:23:33;;;;;;;;;;;;;;;29.65;43.53;97008.28;1834278;77;20101;-72
2021/07/11 11:26:00;;;;;;;;;;;;;;;29.75;43.43;97001.64;1839186;77;20116;-73
2021/07/11 11:28:40;;;;;;;;;;;;;;;29.73;43.30;97002.97;1843193;77;20170;-72
2021/07/11 11:31:16;;;;;;;;;;;;;;;29.65;43.45;96991.18;1842657;77;20456;-72
2021/07/11 11:33:51;;;;;;;;;;;;;;;29.73;43.54;96987.48;1838441;77;20091;-71
2021/07/11 11:36:29;;;;;;;;;;;;;;;29.73;43.44;96992.92;1830379;77;20140;-72
2021/07/11 11:38:57;;;;;;;;;;;;;;;29.87;43.38;96986.59;1846478;77;20131;-72
2021/07/11 11:41:25;;;;;;;;;;;;;;;30.00;43.24;96985.44;1835714;77;20217;-72
2021/07/11 11:43:51;;;;;;;;;;;;;;;30.15;43.02;96977.22;1828046;77;20128;-71
2021/07/11 11:46:26;;;;;;;;;;;;;;;30.33;42.97;96978.78;1826675;77;20381;-73
2021/07/11 11:49:01;;;;;;;;;;;;;;;30.51;42.14;96979.00;1832704;77;20104;-74
2021/07/11 11:51:28;;;;;;;;;;;;;;;30.69;42.67;96970.52;1831519;77;20168;-75
2021/07/11 11:53:55;;;;;;;;;;;;;;;30.91;42.64;96976.98;1846804;77;20144;-74
2021/07/11 11:56:21;;;;;;;;;;;;;;;31.08;40.08;96982.31;1841102;77;20174;-74
2021/07/11 11:58:47;;;;;;;;;;;;;;;31.23;41.22;96969.41;1843632;77;20088;-73
2021/07/11 12:01:15;;;;;;;;;;;;;;;31.41;40.66;96971.73;1845571;77;20116;-72
2021/07/11 12:03:44;;;;;;;;;;;;;;;31.49;40.78;96964.96;1816605;77;20091;-73
2021/07/11 12:06:12;;;;;;;;;;;;;;;31.62;40.28;96963.68;1845752;77;20381;-74
2021/07/11 12:08:44;;;;;;;;;;;;;;;31.72;39.84;96963.78;1843923;77;20400;-71
2021/07/11 12:11:11;;;;;;;;;;;;;;;31.72;39.54;96965.14;1834755;77;20099;-73
2021/07/11 12:13:38;;;;;;;;;;;;;;;31.85;39.73;96963.84;1836716;77;20127;-74
2021/07/11 12:16:17;;;;;;;;;;;;;;;31.99;40.78;96964.19;1848630;77;20127;-72
2021/07/11 12:18:51;;;;;;;;;;;;;;;32.06;39.30;96959.31;1845726;77;20179;-72
2021/07/11 12:21:26;;;;;;;;;;;;;;;32.15;38.81;96950.66;1847450;77;20096;-72
2021/07/11 12:23:58;;;;;;;;;;;;;;;32.26;38.46;96955.06;1845953;77;20114;-74
2021/07/11 12:26:25;;;;;;;;;;;;;;;32.42;40.31;96953.22;1850226;77;20153;-75
2021/07/11 12:28:53;;;;;;;;;;;;;;;32.57;38.71;96957.89;1842580;77;20122;-74
2021/07/11 12:31:23;;;;;;;;;;;;;;;32.74;38.34;96952.73;1822912;77;20130;-74
2021/07/11 12:34:01;;;;;;;;;;;;;;;32.84;37.27;96955.52;1830927;77;20108;-73
2021/07/11 12:36:29;;;;;;;;;;;;;;;32.92;36.19;96948.16;1824130;77;20168;-73
2021/07/11 12:38:57;;;;;;;;;;;;;;;32.99;36.42;96939.70;1846122;77;20108;-71
2021/07/11 12:41:26;;;;;;;;;;;;;;;33.07;34.89;96936.98;1842573;77;20097;-74
2021/07/11 12:43:55;;;;;;;;;;;;;;;33.04;34.52;96933.42;1832755;77;20436;-75
2021/07/11 12:46:25;;;;;;;;;;;;;;;33.10;38.63;96936.42;1840189;77;20170;-72
2021/07/11 12:48:54;;;;;;;;;;;;;;;33.14;36.08;96925.24;1850462;77;20130;-71
2021/07/11 12:51:27;;;;;;;;;;;;;;;33.27;36.91;96927.95;1848525;77;20224;-71
2021/07/11 12:53:56;;;;;;;;;;;;;;;33.37;35.32;96924.41;1849205;77;20122;-73